sensor_id;sensor_type;location;lat;lon;timestamp;pressure;altitude;pressure_sealevel;temperature;humidity
41596;BME280;27283;52.504;13.358;2022-09-27T00:00:40;99299.56;;;12.54;69.91
41596;BME280;27283;52.504;13.358;2022-09-27T00:03:29;99288.88;;;12.72;69.58
41596;BME280;27283;52.504;13.358;2022-09-27T00:06:05;99287.94;;;12.53;70.17
41596;BME280;27283;52.504;13.358;2022-09-27T00:08:36;99276.75;;;12.56;69.77
41596;BME280;27283;52.504;13.358;2022-09-27T00:11:14;99269.22;;;12.65;69.73
41596;BME280;27283;52.504;13.358;2022-09-27T00:13:48;99275.06;;;12.62;69.54
41596;BME280;27283;52.504;13.358;2022-09-27T00:16:23;99266.66;;;12.77;69.67
41596;BME280;27283;52.504;13.358;2022-09-27T00:18:58;99265.94;;;12.56;69.65
41596;BME280;27283;52.504;13.358;2022-09-27T00:21:31;99262.19;;;12.57;69.94
41596;BME280;27283;52.504;13.358;2022-09-27T00:24:03;99262.63;;;12.54;69.76
41596;BME280;27283;52.504;13.358;2022-09-27T00:26:34;99258.25;;;12.60;69.59
41596;BME280;27283;52.504;13.358;2022-09-27T00:29:08;99259.19;;;12.79;68.88
41596;BME280;27283;52.504;13.358;2022-09-27T00:31:43;99259.03;;;12.67;69.52
41596;BME280;27283;52.504;13.358;2022-09-27T00:34:18;99258.19;;;12.73;69.02
41596;BME280;27283;52.504;13.358;2022-09-27T00:36:52;99254.44;;;12.74;69.62
41596;BME280;27283;52.504;13.358;2022-09-27T00:39:24;99254.03;;;12.71;69.86
41596;BME280;27283;52.504;13.358;2022-09-27T00:41:56;99251.34;;;12.71;69.84
41596;BME280;27283;52.504;13.358;2022-09-27T00:47:38;99246.66;;;12.53;70.77
41596;BME280;27283;52.504;13.358;2022-09-27T00:50:22;99238.06;;;12.69;70.63
41596;BME280;27283;52.504;13.358;2022-09-27T00:53:03;99240.25;;;12.54;71.28
41596;BME280;27283;52.504;13.358;2022-09-27T00:55:42;99225.50;;;12.56;70.89
41596;BME280;27283;52.504;13.358;2022-09-27T00:58:18;99231.19;;;12.41;71.31
41596;BME280;27283;52.504;13.358;2022-09-27T01:00:55;99222.50;;;12.33;71.75
41596;BME280;27283;52.504;13.358;2022-09-27T01:03:38;99212.97;;;12.30;71.70
41596;BME280;27283;52.504;13.358;2022-09-27T01:06:13;99220.63;;;12.33;71.22
41596;BME280;27283;52.504;13.358;2022-09-27T01:08:48;99208.00;;;12.34;71.03
41596;BME280;27283;52.504;13.358;2022-09-27T01:11:27;99201.34;;;12.36;70.87
41596;BME280;27283;52.504;13.358;2022-09-27T01:14:14;99206.94;;;12.35;70.93
41596;BME280;27283;52.504;13.358;2022-09-27T01:16:59;99201.16;;;12.38;70.74
41596;BME280;27283;52.504;13.358;2022-09-27T01:22:52;99192.22;;;12.37;70.79
41596;BME280;27283;52.504;13.358;2022-09-27T01:25:48;99192.25;;;12.31;70.70
41596;BME280;27283;52.504;13.358;2022-09-27T01:28:28;99187.69;;;12.31;70.86
41596;BME280;27283;52.504;13.358;2022-09-27T01:31:13;99180.00;;;12.35;70.49
41596;BME280;27283;52.504;13.358;2022-09-27T01:33:58;99185.16;;;12.43;70.12
41596;BME280;27283;52.504;13.358;2022-09-27T01:36:41;99177.72;;;12.38;70.29
41596;BME280;27283;52.504;13.358;2022-09-27T01:39:24;99183.53;;;12.35;70.10
41596;BME280;27283;52.504;13.358;2022-09-27T01:42:06;99178.72;;;12.44;69.93
41596;BME280;27283;52.504;13.358;2022-09-27T01:44:45;99178.06;;;12.49;69.86
41596;BME280;27283;52.504;13.358;2022-09-27T01:47:30;99174.50;;;12.55;69.51
41596;BME280;27283;52.504;13.358;2022-09-27T01:50:06;99163.00;;;12.66;69.22
41596;BME280;27283;52.504;13.358;2022-09-27T01:52:44;99163.66;;;12.62;69.13
41596;BME280;27283;52.504;13.358;2022-09-27T01:55:21;99154.75;;;12.61;69.20
41596;BME280;27283;52.504;13.358;2022-09-27T01:57:59;99160.09;;;12.68;68.94
41596;BME280;27283;52.504;13.358;2022-09-27T02:00:35;99148.31;;;12.62;68.92
41596;BME280;27283;52.504;13.358;2022-09-27T02:03:13;99151.53;;;12.77;67.98
41596;BME280;27283;52.504;13.358;2022-09-27T02:05:50;99141.22;;;12.68;68.84
41596;BME280;27283;52.504;13.358;2022-09-27T02:08:28;99143.09;;;12.67;68.42
41596;BME280;27283;52.504;13.358;2022-09-27T02:11:09;99135.44;;;12.89;67.85
41596;BME280;27283;52.504;13.358;2022-09-27T02:13:45;99126.97;;;12.86;68.09
41596;BME280;27283;52.504;13.358;2022-09-27T02:16:22;99131.13;;;12.82;68.15
41596;BME280;27283;52.504;13.358;2022-09-27T02:19:08;99116.94;;;12.68;68.45
41596;BME280;27283;52.504;13.358;2022-09-27T02:21:44;99115.78;;;12.82;67.75
41596;BME280;27283;52.504;13.358;2022-09-27T02:24:24;99116.94;;;12.68;68.18
41596;BME280;27283;52.504;13.358;2022-09-27T02:27:02;99109.63;;;12.75;68.09
41596;BME280;27283;52.504;13.358;2022-09-27T02:29:42;99102.19;;;12.70;68.36
41596;BME280;27283;52.504;13.358;2022-09-27T02:32:18;99105.28;;;12.74;68.37
41596;BME280;27283;52.504;13.358;2022-09-27T02:34:54;99099.38;;;12.84;67.71
41596;BME280;27283;52.504;13.358;2022-09-27T02:37:29;99096.50;;;13.04;67.13
41596;BME280;27283;52.504;13.358;2022-09-27T02:40:02;99101.97;;;12.97;66.88
41596;BME280;27283;52.504;13.358;2022-09-27T02:42:35;99091.56;;;13.01;67.20
41596;BME280;27283;52.504;13.358;2022-09-27T02:45:09;99090.34;;;12.97;67.29
41596;BME280;27283;52.504;13.358;2022-09-27T02:47:52;99088.53;;;12.90;67.63
41596;BME280;27283;52.504;13.358;2022-09-27T02:50:48;99084.91;;;12.78;67.50
41596;BME280;27283;52.504;13.358;2022-09-27T02:53:36;99087.78;;;12.83;67.58
41596;BME280;27283;52.504;13.358;2022-09-27T02:56:19;99084.88;;;12.85;67.98
41596;BME280;27283;52.504;13.358;2022-09-27T02:59:01;99085.38;;;12.93;67.26
41596;BME280;27283;52.504;13.358;2022-09-27T03:01:42;99079.75;;;12.76;67.63
41596;BME280;27283;52.504;13.358;2022-09-27T03:04:24;99082.09;;;12.91;67.75
41596;BME280;27283;52.504;13.358;2022-09-27T03:07:03;99074.56;;;13.00;67.38
41596;BME280;27283;52.504;13.358;2022-09-27T03:09:47;99076.78;;;12.85;67.71
41596;BME280;27283;52.504;13.358;2022-09-27T03:12:20;99079.06;;;12.81;67.34
41596;BME280;27283;52.504;13.358;2022-09-27T03:14:55;99075.88;;;12.91;67.75
41596;BME280;27283;52.504;13.358;2022-09-27T03:17:28;99072.97;;;12.92;67.65
41596;BME280;27283;52.504;13.358;2022-09-27T03:20:00;99075.22;;;12.96;67.32
41596;BME280;27283;52.504;13.358;2022-09-27T03:22:35;99071.31;;;12.91;67.65
41596;BME280;27283;52.504;13.358;2022-09-27T03:25:08;99061.28;;;12.99;67.20
41596;BME280;27283;52.504;13.358;2022-09-27T03:27:42;99057.81;;;12.91;67.39
41596;BME280;27283;52.504;13.358;2022-09-27T03:30:14;99055.53;;;12.70;68.25
41596;BME280;27283;52.504;13.358;2022-09-27T03:32:46;99045.69;;;12.57;68.99
41596;BME280;27283;52.504;13.358;2022-09-27T03:35:18;99049.97;;;12.65;68.61
41596;BME280;27283;52.504;13.358;2022-09-27T03:37:54;99042.31;;;12.62;69.33
41596;BME280;27283;52.504;13.358;2022-09-27T03:40:26;99051.63;;;12.66;69.12
41596;BME280;27283;52.504;13.358;2022-09-27T03:42:58;99051.34;;;12.74;69.38
41596;BME280;27283;52.504;13.358;2022-09-27T03:45:30;99042.16;;;12.56;70.15
41596;BME280;27283;52.504;13.358;2022-09-27T03:48:03;99042.28;;;12.68;70.95
41596;BME280;27283;52.504;13.358;2022-09-27T03:50:35;99046.00;;;12.67;70.80
41596;BME280;27283;52.504;13.358;2022-09-27T03:53:10;99050.25;;;12.56;71.67
41596;BME280;27283;52.504;13.358;2022-09-27T03:55:44;99042.75;;;12.58;71.50
41596;BME280;27283;52.504;13.358;2022-09-27T03:58:17;99039.19;;;12.65;72.03
41596;BME280;27283;52.504;13.358;2022-09-27T04:00:49;99039.13;;;12.71;71.69
41596;BME280;27283;52.504;13.358;2022-09-27T04:03:21;99031.31;;;12.63;72.29
41596;BME280;27283;52.504;13.358;2022-09-27T04:05:54;99026.09;;;12.68;72.52
41596;BME280;27283;52.504;13.358;2022-09-27T04:08:30;99026.44;;;12.53;73.61
41596;BME280;27283;52.504;13.358;2022-09-27T04:11:03;99028.03;;;12.61;73.26
41596;BME280;27283;52.504;13.358;2022-09-27T04:13:35;99029.34;;;12.52;73.96
41596;BME280;27283;52.504;13.358;2022-09-27T04:16:07;99025.22;;;12.49;74.04
41596;BME280;27283;52.504;13.358;2022-09-27T04:18:40;99031.13;;;12.39;74.88
41596;BME280;27283;52.504;13.358;2022-09-27T04:21:12;99017.56;;;12.46;74.82
41596;BME280;27283;52.504;13.358;2022-09-27T04:23:47;99012.41;;;12.45;75.18
41596;BME280;27283;52.504;13.358;2022-09-27T04:26:19;99022.84;;;12.59;74.77
41596;BME280;27283;52.504;13.358;2022-09-27T04:28:53;99015.31;;;12.68;74.62
41596;BME280;27283;52.504;13.358;2022-09-27T04:31:25;99021.03;;;12.53;75.21
41596;BME280;27283;52.504;13.358;2022-09-27T04:34:13;99018.47;;;12.40;75.80
41596;BME280;27283;52.504;13.358;2022-09-27T04:36:44;99020.59;;;12.56;75.99
41596;BME280;27283;52.504;13.358;2022-09-27T04:39:17;99019.59;;;12.51;76.75
41596;BME280;27283;52.504;13.358;2022-09-27T04:41:49;99017.78;;;12.19;78.56
41596;BME280;27283;52.504;13.358;2022-09-27T04:44:21;99022.84;;;12.34;79.06
41596;BME280;27283;52.504;13.358;2022-09-27T04:46:53;99026.09;;;12.18;80.01
41596;BME280;27283;52.504;13.358;2022-09-27T04:49:25;99024.19;;;12.25;80.19
41596;BME280;27283;52.504;13.358;2022-09-27T04:51:57;99018.19;;;12.23;80.76
41596;BME280;27283;52.504;13.358;2022-09-27T04:54:32;99022.13;;;12.20;81.76
41596;BME280;27283;52.504;13.358;2022-09-27T04:57:04;99019.69;;;12.12;81.64
41596;BME280;27283;52.504;13.358;2022-09-27T04:59:36;99017.66;;;12.08;83.14
41596;BME280;27283;52.504;13.358;2022-09-27T05:02:09;99020.25;;;11.96;83.44
41596;BME280;27283;52.504;13.358;2022-09-27T05:04:41;99019.22;;;11.90;84.02
41596;BME280;27283;52.504;13.358;2022-09-27T05:07:13;99020.25;;;11.89;84.27
41596;BME280;27283;52.504;13.358;2022-09-27T05:09:48;99013.19;;;11.95;83.98
41596;BME280;27283;52.504;13.358;2022-09-27T05:12:21;99019.53;;;12.07;84.00
41596;BME280;27283;52.504;13.358;2022-09-27T05:14:54;99018.38;;;11.96;84.31
41596;BME280;27283;52.504;13.358;2022-09-27T05:17:27;99014.63;;;11.91;85.28
41596;BME280;27283;52.504;13.358;2022-09-27T05:19:59;99025.19;;;11.92;85.83
41596;BME280;27283;52.504;13.358;2022-09-27T05:22:31;99019.41;;;11.95;86.03
41596;BME280;27283;52.504;13.358;2022-09-27T05:25:07;99021.06;;;11.89;85.84
41596;BME280;27283;52.504;13.358;2022-09-27T05:27:39;99011.00;;;11.78;86.95
41596;BME280;27283;52.504;13.358;2022-09-27T05:30:12;99012.59;;;11.93;87.27
41596;BME280;27283;52.504;13.358;2022-09-27T05:32:44;99023.81;;;11.83;87.22
41596;BME280;27283;52.504;13.358;2022-09-27T05:35:18;99021.31;;;11.81;88.55
41596;BME280;27283;52.504;13.358;2022-09-27T05:37:52;99011.94;;;11.59;90.04
41596;BME280;27283;52.504;13.358;2022-09-27T05:40:27;99016.88;;;11.68;90.25
41596;BME280;27283;52.504;13.358;2022-09-27T05:43:14;99023.63;;;11.78;89.75
41596;BME280;27283;52.504;13.358;2022-09-27T05:45:48;99022.78;;;11.77;90.19
41596;BME280;27283;52.504;13.358;2022-09-27T05:48:20;99016.38;;;11.78;90.36
41596;BME280;27283;52.504;13.358;2022-09-27T05:50:53;99023.28;;;11.61;91.42
41596;BME280;27283;52.504;13.358;2022-09-27T05:53:25;99010.75;;;11.48;91.80
41596;BME280;27283;52.504;13.358;2022-09-27T05:56:03;99021.03;;;11.64;91.61
41596;BME280;27283;52.504;13.358;2022-09-27T05:58:35;99015.16;;;11.74;91.09
41596;BME280;27283;52.504;13.358;2022-09-27T06:01:08;99014.16;;;11.68;91.20
41596;BME280;27283;52.504;13.358;2022-09-27T06:03:41;99019.56;;;11.68;91.75
41596;BME280;27283;52.504;13.358;2022-09-27T06:06:15;99015.16;;;11.74;91.95
41596;BME280;27283;52.504;13.358;2022-09-27T06:08:47;99016.88;;;11.62;92.06
41596;BME280;27283;52.504;13.358;2022-09-27T06:11:22;99013.69;;;11.78;92.08
41596;BME280;27283;52.504;13.358;2022-09-27T06:13:55;99015.38;;;11.73;92.17
41596;BME280;27283;52.504;13.358;2022-09-27T06:16:27;99018.78;;;11.55;92.81
41596;BME280;27283;52.504;13.358;2022-09-27T06:18:59;99008.41;;;11.58;92.67
41596;BME280;27283;52.504;13.358;2022-09-27T06:21:32;99012.34;;;11.56;93.51
41596;BME280;27283;52.504;13.358;2022-09-27T06:24:04;99015.47;;;11.52;93.70
41596;BME280;27283;52.504;13.358;2022-09-27T06:26:39;99009.81;;;11.67;94.43
41596;BME280;27283;52.504;13.358;2022-09-27T06:29:11;99012.03;;;11.77;93.33
41596;BME280;27283;52.504;13.358;2022-09-27T06:31:44;99019.63;;;11.55;93.13
41596;BME280;27283;52.504;13.358;2022-09-27T06:34:16;99017.69;;;11.69;93.48
41596;BME280;27283;52.504;13.358;2022-09-27T06:36:49;99005.69;;;11.65;93.14
41596;BME280;27283;52.504;13.358;2022-09-27T06:39:21;99018.34;;;11.58;93.48
41596;BME280;27283;52.504;13.358;2022-09-27T06:41:56;99018.69;;;11.75;93.57
41596;BME280;27283;52.504;13.358;2022-09-27T06:44:28;99016.66;;;11.70;93.07
41596;BME280;27283;52.504;13.358;2022-09-27T06:47:00;99020.69;;;11.86;92.50
41596;BME280;27283;52.504;13.358;2022-09-27T06:49:32;99020.69;;;11.86;93.17
41596;BME280;27283;52.504;13.358;2022-09-27T06:52:05;99017.56;;;11.89;92.71
41596;BME280;27283;52.504;13.358;2022-09-27T06:54:37;99023.53;;;11.91;92.77
41596;BME280;27283;52.504;13.358;2022-09-27T06:57:12;99021.31;;;11.81;92.67
41596;BME280;27283;52.504;13.358;2022-09-27T07:00:05;99015.88;;;11.88;93.50
41596;BME280;27283;52.504;13.358;2022-09-27T07:02:50;99028.16;;;11.84;93.05
41596;BME280;27283;52.504;13.358;2022-09-27T07:05:22;99028.19;;;11.77;92.98
41596;BME280;27283;52.504;13.358;2022-09-27T07:07:54;99023.81;;;11.83;94.94
41596;BME280;27283;52.504;13.358;2022-09-27T07:10:28;99027.06;;;11.92;93.46
41596;BME280;27283;52.504;13.358;2022-09-27T07:13:05;99024.34;;;11.98;93.52
41596;BME280;27283;52.504;13.358;2022-09-27T07:15:40;99031.63;;;11.98;92.94
41596;BME280;27283;52.504;13.358;2022-09-27T07:18:12;99021.91;;;11.90;93.96
41596;BME280;27283;52.504;13.358;2022-09-27T07:20:45;99021.22;;;12.01;94.41
41596;BME280;27283;52.504;13.358;2022-09-27T07:23:18;99018.75;;;12.00;94.81
41596;BME280;27283;52.504;13.358;2022-09-27T07:25:50;99019.88;;;11.85;93.95
41596;BME280;27283;52.504;13.358;2022-09-27T07:28:25;99029.03;;;11.78;94.76
41596;BME280;27283;52.504;13.358;2022-09-27T07:30:58;99027.41;;;11.70;95.37
41596;BME280;27283;52.504;13.358;2022-09-27T07:33:31;99032.69;;;11.90;95.77
41596;BME280;27283;52.504;13.358;2022-09-27T07:36:11;99026.84;;;12.00;95.83
41596;BME280;27283;52.504;13.358;2022-09-27T07:38:43;99029.69;;;11.73;96.40
41596;BME280;27283;52.504;13.358;2022-09-27T07:41:15;99018.91;;;11.73;97.07
41596;BME280;27283;52.504;13.358;2022-09-27T07:43:50;99024.03;;;11.81;96.54
41596;BME280;27283;52.504;13.358;2022-09-27T07:46:22;99018.00;;;11.93;95.34
41596;BME280;27283;52.504;13.358;2022-09-27T07:48:54;99021.06;;;11.89;95.56
41596;BME280;27283;52.504;13.358;2022-09-27T07:51:27;99027.25;;;12.03;96.10
41596;BME280;27283;52.504;13.358;2022-09-27T07:53:59;99022.50;;;12.24;95.30
41596;BME280;27283;52.504;13.358;2022-09-27T07:56:36;99024.31;;;12.30;95.84
41596;BME280;27283;52.504;13.358;2022-09-27T07:59:11;99028.84;;;12.11;93.92
41596;BME280;27283;52.504;13.358;2022-09-27T08:01:43;99024.47;;;12.17;93.52
41596;BME280;27283;52.504;13.358;2022-09-27T08:04:15;99030.66;;;12.17;93.90
41596;BME280;27283;52.504;13.358;2022-09-27T08:06:47;99033.44;;;12.04;93.35
41596;BME280;27283;52.504;13.358;2022-09-27T08:09:20;99039.22;;;12.08;94.00
41596;BME280;27283;52.504;13.358;2022-09-27T08:11:55;99039.41;;;12.13;94.64
41596;BME280;27283;52.504;13.358;2022-09-27T08:14:31;99036.50;;;12.14;94.06
41596;BME280;27283;52.504;13.358;2022-09-27T08:17:11;99031.13;;;12.08;94.49
41596;BME280;27283;52.504;13.358;2022-09-27T08:19:44;99036.03;;;12.17;94.08
41596;BME280;27283;52.504;13.358;2022-09-27T08:22:17;99032.13;;;12.13;93.42
41596;BME280;27283;52.504;13.358;2022-09-27T08:24:49;99034.88;;;12.32;93.51
41596;BME280;27283;52.504;13.358;2022-09-27T08:27:21;99037.59;;;12.32;93.33
41596;BME280;27283;52.504;13.358;2022-09-27T08:29:57;99037.06;;;12.23;93.34
41596;BME280;27283;52.504;13.358;2022-09-27T08:32:29;99030.94;;;12.34;93.89
41596;BME280;27283;52.504;13.358;2022-09-27T08:35:01;99032.63;;;12.29;93.26
41596;BME280;27283;52.504;13.358;2022-09-27T08:37:34;99040.22;;;12.13;93.45
41596;BME280;27283;52.504;13.358;2022-09-27T08:40:09;99047.03;;;12.16;94.80
41596;BME280;27283;52.504;13.358;2022-09-27T08:42:49;99042.25;;;12.18;93.35
41596;BME280;27283;52.504;13.358;2022-09-27T08:45:35;99041.81;;;12.21;93.25
41596;BME280;27283;52.504;13.358;2022-09-27T08:48:11;99044.19;;;12.36;94.09
41596;BME280;27283;52.504;13.358;2022-09-27T08:50:45;99048.22;;;12.27;94.84
41596;BME280;27283;52.504;13.358;2022-09-27T08:53:21;99046.56;;;12.51;93.33
41596;BME280;27283;52.504;13.358;2022-09-27T08:55:58;99044.03;;;12.56;92.68
41596;BME280;27283;52.504;13.358;2022-09-27T08:58:33;99055.25;;;12.53;92.47
41596;BME280;27283;52.504;13.358;2022-09-27T09:01:14;99049.03;;;12.52;92.79
41596;BME280;27283;52.504;13.358;2022-09-27T09:03:49;99045.09;;;12.55;92.75
41596;BME280;27283;52.504;13.358;2022-09-27T09:06:25;99034.34;;;12.48;92.12
41596;BME280;27283;52.504;13.358;2022-09-27T09:09:04;99043.50;;;12.47;93.14
41596;BME280;27283;52.504;13.358;2022-09-27T09:11:47;99040.13;;;12.27;92.23
41596;BME280;27283;52.504;13.358;2022-09-27T09:14:44;99044.44;;;12.59;92.17
41596;BME280;27283;52.504;13.358;2022-09-27T09:20:28;99041.09;;;12.57;91.78
41596;BME280;27283;52.504;13.358;2022-09-27T09:23:17;99039.69;;;12.55;92.00
41596;BME280;27283;52.504;13.358;2022-09-27T09:25:56;99039.72;;;12.73;91.21
41596;BME280;27283;52.504;13.358;2022-09-27T09:28:42;99037.25;;;12.72;91.34
41596;BME280;27283;52.504;13.358;2022-09-27T09:31:25;99034.88;;;12.82;90.31
41596;BME280;27283;52.504;13.358;2022-09-27T09:34:11;99033.41;;;12.86;90.67
41596;BME280;27283;52.504;13.358;2022-09-27T09:36:51;99040.88;;;13.03;89.32
41596;BME280;27283;52.504;13.358;2022-09-27T09:39:33;99039.94;;;13.34;88.63
41596;BME280;27283;52.504;13.358;2022-09-27T09:42:10;99040.25;;;13.44;87.57
41596;BME280;27283;52.504;13.358;2022-09-27T09:44:48;99040.97;;;13.33;88.04
41596;BME280;27283;52.504;13.358;2022-09-27T09:47:28;99033.63;;;13.40;87.98
41596;BME280;27283;52.504;13.358;2022-09-27T09:50:16;99034.53;;;13.53;87.61
41596;BME280;27283;52.504;13.358;2022-09-27T09:52:53;99046.59;;;13.32;87.77
41596;BME280;27283;52.504;13.358;2022-09-27T09:55:34;99034.03;;;13.44;86.64
41596;BME280;27283;52.504;13.358;2022-09-27T09:58:17;99033.16;;;13.25;88.73
41596;BME280;27283;52.504;13.358;2022-09-27T10:00:53;99031.84;;;13.34;87.39
41596;BME280;27283;52.504;13.358;2022-09-27T10:03:27;99032.03;;;13.51;89.28
41596;BME280;27283;52.504;13.358;2022-09-27T10:06:02;99031.00;;;13.52;86.84
41596;BME280;27283;52.504;13.358;2022-09-27T10:08:34;99033.06;;;13.69;85.85
41596;BME280;27283;52.504;13.358;2022-09-27T10:11:16;99026.72;;;13.63;87.05
41596;BME280;27283;52.504;13.358;2022-09-27T10:13:50;99015.78;;;13.88;86.33
41596;BME280;27283;52.504;13.358;2022-09-27T10:16:25;99023.94;;;14.12;84.99
41596;BME280;27283;52.504;13.358;2022-09-27T10:19:01;99019.75;;;14.40;82.15
41596;BME280;27283;52.504;13.358;2022-09-27T10:21:40;99020.63;;;14.87;80.78
41596;BME280;27283;52.504;13.358;2022-09-27T10:24:14;99026.47;;;15.08;80.50
41596;BME280;27283;52.504;13.358;2022-09-27T10:26:48;99024.63;;;15.09;78.08
41596;BME280;27283;52.504;13.358;2022-09-27T10:29:23;99023.72;;;14.67;79.06
41596;BME280;27283;52.504;13.358;2022-09-27T10:32:01;99025.53;;;14.55;79.12
41596;BME280;27283;52.504;13.358;2022-09-27T10:34:35;99020.63;;;14.64;79.98
41596;BME280;27283;52.504;13.358;2022-09-27T10:37:20;99017.88;;;14.52;79.41
41596;BME280;27283;52.504;13.358;2022-09-27T10:39:53;99020.13;;;14.43;80.12
41596;BME280;27283;52.504;13.358;2022-09-27T10:42:33;99014.25;;;14.46;80.39
41596;BME280;27283;52.504;13.358;2022-09-27T10:45:23;99014.00;;;14.60;78.97
41596;BME280;27283;52.504;13.358;2022-09-27T10:47:59;99008.59;;;14.60;78.66
41596;BME280;27283;52.504;13.358;2022-09-27T10:50:32;99011.69;;;14.63;78.48
41596;BME280;27283;52.504;13.358;2022-09-27T10:53:22;99011.69;;;14.63;78.68
41596;BME280;27283;52.504;13.358;2022-09-27T10:55:55;99008.06;;;14.69;79.61
41596;BME280;27283;52.504;13.358;2022-09-27T10:58:30;99011.22;;;14.66;79.96
41596;BME280;27283;52.504;13.358;2022-09-27T11:01:06;99014.88;;;14.72;78.45
41596;BME280;27283;52.504;13.358;2022-09-27T11:03:47;99014.41;;;14.63;83.11
41596;BME280;27283;52.504;13.358;2022-09-27T11:06:30;99017.31;;;14.50;86.19
41596;BME280;27283;52.504;13.358;2022-09-27T11:09:17;99010.38;;;14.54;87.17
41596;BME280;27283;52.504;13.358;2022-09-27T11:12:06;99009.53;;;14.30;88.14
41596;BME280;27283;52.504;13.358;2022-09-27T11:14:40;99009.38;;;14.01;89.32
41596;BME280;27283;52.504;13.358;2022-09-27T11:17:16;99003.25;;;14.06;90.42
41596;BME280;27283;52.504;13.358;2022-09-27T11:23:03;99006.94;;;13.81;88.88
41596;BME280;27283;52.504;13.358;2022-09-27T11:25:48;99010.47;;;13.81;91.87
41596;BME280;27283;52.504;13.358;2022-09-27T11:28:35;99009.59;;;13.69;93.59
41596;BME280;27283;52.504;13.358;2022-09-27T11:31:19;99012.59;;;13.91;92.69
41596;BME280;27283;52.504;13.358;2022-09-27T11:34:04;99015.63;;;14.13;89.07
41596;BME280;27283;52.504;13.358;2022-09-27T11:36:55;99016.44;;;14.14;93.67
41596;BME280;27283;52.504;13.358;2022-09-27T11:39:37;99024.38;;;13.97;92.92
41596;BME280;27283;52.504;13.358;2022-09-27T11:42:27;99025.16;;;13.86;93.92
41596;BME280;27283;52.504;13.358;2022-09-27T11:45:17;99053.50;;;13.09;91.35
41596;BME280;27283;52.504;13.358;2022-09-27T11:48:24;99050.00;;;11.62;93.91
41596;BME280;27283;52.504;13.358;2022-09-27T11:51:12;99061.34;;;11.12;95.98
41596;BME280;27283;52.504;13.358;2022-09-27T11:54:01;99051.06;;;10.96;98.45
41596;BME280;27283;52.504;13.358;2022-09-27T11:56:41;99055.19;;;11.05;99.43
41596;BME280;27283;52.504;13.358;2022-09-27T11:59:41;99063.09;;;10.80;100.00
41596;BME280;27283;52.504;13.358;2022-09-27T12:02:34;99067.66;;;10.39;100.00
41596;BME280;27283;52.504;13.358;2022-09-27T12:05:20;99069.09;;;10.42;100.00
41596;BME280;27283;52.504;13.358;2022-09-27T12:08:11;99066.78;;;10.32;100.00
41596;BME280;27283;52.504;13.358;2022-09-27T12:10:50;99066.78;;;10.32;100.00
41596;BME280;27283;52.504;13.358;2022-09-27T12:13:32;99067.03;;;10.44;100.00
41596;BME280;27283;52.504;13.358;2022-09-27T12:16:09;99074.66;;;10.34;100.00
41596;BME280;27283;52.504;13.358;2022-09-27T12:18:44;99075.09;;;10.44;100.00
41596;BME280;27283;52.504;13.358;2022-09-27T12:21:20;99078.41;;;10.59;100.00
41596;BME280;27283;52.504;13.358;2022-09-27T12:23:55;99065.56;;;10.95;100.00
41596;BME280;27283;52.504;13.358;2022-09-27T12:26:30;99067.81;;;10.98;100.00
41596;BME280;27283;52.504;13.358;2022-09-27T12:29:13;99077.97;;;10.89;100.00
41596;BME280;27283;52.504;13.358;2022-09-27T12:31:56;99071.34;;;11.05;100.00
41596;BME280;27283;52.504;13.358;2022-09-27T12:34:36;99074.22;;;11.10;100.00
41596;BME280;27283;52.504;13.358;2022-09-27T12:37:13;99068.13;;;11.35;100.00
41596;BME280;27283;52.504;13.358;2022-09-27T12:39:51;99071.69;;;11.74;100.00
41596;BME280;27283;52.504;13.358;2022-09-27T12:42:30;99071.66;;;12.26;100.00
41596;BME280;27283;52.504;13.358;2022-09-27T12:45:09;99068.13;;;12.76;100.00
41596;BME280;27283;52.504;13.358;2022-09-27T12:47:55;99071.94;;;12.68;100.00
41596;BME280;27283;52.504;13.358;2022-09-27T12:50:35;99071.69;;;12.95;99.98
41596;BME280;27283;52.504;13.358;2022-09-27T12:53:14;99075.13;;;12.58;95.84
41596;BME280;27283;52.504;13.358;2022-09-27T12:56:02;99074.50;;;12.82;94.22
41596;BME280;27283;52.504;13.358;2022-09-27T12:58:53;99066.25;;;12.51;98.76
41596;BME280;27283;52.504;13.358;2022-09-27T13:01:46;99065.63;;;12.24;96.36
41596;BME280;27283;52.504;13.358;2022-09-27T13:04:40;99071.50;;;12.46;97.04
41596;BME280;27283;52.504;13.358;2022-09-27T13:07:25;99069.34;;;12.55;96.54
41596;BME280;27283;52.504;13.358;2022-09-27T13:13:09;99082.66;;;12.75;94.78
41596;BME280;27283;52.504;13.358;2022-09-27T13:15:44;99081.31;;;12.84;94.61
41596;BME280;27283;52.504;13.358;2022-09-27T13:18:29;99082.56;;;13.07;96.06
41596;BME280;27283;52.504;13.358;2022-09-27T13:21:07;99085.44;;;13.30;96.92
41596;BME280;27283;52.504;13.358;2022-09-27T13:23:57;99085.47;;;13.49;92.13
41596;BME280;27283;52.504;13.358;2022-09-27T13:26:46;99092.06;;;13.35;92.16
41596;BME280;27283;52.504;13.358;2022-09-27T13:29:24;99093.94;;;13.34;94.77
41596;BME280;27283;52.504;13.358;2022-09-27T13:32:16;99097.38;;;13.41;95.46
41596;BME280;27283;52.504;13.358;2022-09-27T13:34:50;99094.31;;;13.38;93.50
41596;BME280;27283;52.504;13.358;2022-09-27T13:37:45;99097.38;;;13.41;94.61
41596;BME280;27283;52.504;13.358;2022-09-27T13:40:27;99098.81;;;13.44;91.96
41596;BME280;27283;52.504;13.358;2022-09-27T13:43:20;99101.28;;;13.45;91.37
41596;BME280;27283;52.504;13.358;2022-09-27T13:45:59;99096.69;;;13.27;93.43
41596;BME280;27283;52.504;13.358;2022-09-27T13:48:44;99093.75;;;13.10;92.66
41596;BME280;27283;52.504;13.358;2022-09-27T13:51:30;99094.19;;;13.07;94.13
41596;BME280;27283;52.504;13.358;2022-09-27T13:54:36;99107.22;;;12.67;93.26
41596;BME280;27283;52.504;13.358;2022-09-27T14:00:21;99101.69;;;13.24;91.98
41596;BME280;27283;52.504;13.358;2022-09-27T14:03:00;99107.75;;;13.19;93.15